Scroll down
FLIGHT INFORMATION
Cathay Pacific

CPA102

At Arrival Gate

WSSS
 KSAN
DATE: 2021-01-02
GATE:  -
GATE DEPARTURE: 01:35
TAKEOFF: 01:49
DATE: 2021-01-02
GATE:  -
LANDING: 15:23
GATE ARRIVAL: 15:29
FLIGHT DATA
Crew: 
Speed: 
968 kph
Altitude: 
39,029 ft
Stage Length: 
14,269.1 km
Block Time: 
13.8 hrs
Flight Time: 
13.6 hrs
Fuel Used: 
151,268 kg
Cleared Route: WSSS TOMAN VERIN LUSMO AKMON UDOSI ALDAS AGSAM ANOKI ARESI AKOTA AVMUP ALDIS ABVAR MEVIN MAGMA SADEK KAZIK AMMEK AZAMA ONC OLDUP 32E40 36E50 40E60 43E70 45E80 46N70 46N60 45N50 43N40 40N30 ALCOA AVE DERBB REYES FIM LAX KSAN
TRACK DATA
50,000 ft 1,000 kts
AIRCRAFT INFO AND CUMULATIVE STATS
Aircraft Type: 
B744ERF
Registration: 
SELCAL: 
QSBP
MSN/LN: 
37299 / 1404
Operator: 
Total Flights: 
4
Total Block Time: 
42.8 hrs
Total Flight Time: 
41.7 hrs
Total Fuel Used: 
457,266 kg
DATALINK LOG | Newest first | Current as of: 2022-09-29 23:52:52
LABEL SEQUENCE CONTENT Dn/Up
QD263115:29 25.8▼ Dn
QC202615:23▼ Dn
2U4321KSAN 021251Z 00000KT 10SM FEW010 FEW250 08/03 A3024 RMK AO2 SLP238 T00780033▲ Up
5R3849ALCOA 14:13z FL390 AVE 14:48z DERBB M0.86 20.0 -63 313/49 RW09 15:22z▼ Dn
2S3849KSAN▼ Dn
QB520401:49▼ Dn
QA364001:35 359.7▼ Dn
2U2855WSSS 020100Z 18005KT 150V260 1200 R20R/P2000N R20L/1500D +TSRA FEW006 FEW012CB FEW015TCU OVC120 23/23 Q1010 BECMG FM0110 TL0120▲ Up
2S2933WSSS▼ Dn
A32337CLEARED TO KSAN VIA TOMA2E TOMAN L625 MEVIN B462 KAZIK Y59 AZAMA Y579 ONC OLDUP 32N140E 36N150E 40N160E 43N170E 45N180E 46N170W 46N160W 45N150W 43N140W 40N130W ALCOA AVE J1 LAX COMIX2. SQUAWK 2050.▲ Up
B32327WSSS KSAN CPA102 BLIA ▼ Dn
Q02125[LINK ACK]▲ Up
Q02125[LINK TEST]▼ Dn


AIRCRAFT HISTORY
FLIGHT DATE FLIGHT NO. ORIGIN DESTINATION CLEARED ROUTE BLOCK TIME FLIGHT TIME FUEL USED PILOT
2021-01-02CPA102WSSS KSAN WSSS TOMAN VERIN LUSMO AKMON UDOSI ALDAS AGSAM ANOKI ARESI AKOTA AVMUP ALDIS ABVAR MEVIN MAGMA SADEK KAZIK AMMEK AZAMA ONC OLDUP 32E40 36E50 40E60 43E70 45E80 46N70 46N60 45N50 43N40 40N30 ALCOA AVE DERBB REYES FIM LAX KSAN13.8 hrs13.6 hrs333,488 lbEphedrin
2020-09-09CPA2075VHHH WSSS VHHH PECAN LEMON EPDOS ENBOK EPKAL EGEMU EXOTO VEPAM KARAN SOSPA PTH RUTIT ELSAS CN ESPOB ESBUM ELALO WSSS3.4 hrs3.2 hrs87,336 lbZsolt Szivak
2019-08-27CPA83KLAX VHHH KLAX HIIPR EVOSE MKGEE DARRK SUMMR RIZIN MQO AUDIA 36N30 37N40 37N50 36N60 34N70 32E80 30E70 28E60 27E50 25E40 TUNTO GUMBO HCN PARPA GRADY WP521 QUOTA CYRUS COMBO DADON ELATO MAGOG ENPET FISHA ABBEY MUSEL TAMAR TD GUAVA SOKOE LIMES VHHH13.6 hrs13.2 hrs317,963 lb-SUSPENDED-
2019-01-14CPA84VHHH KLAX PORPA TD OCEAN RASSE CONGA ENVAR DADON EXTRA RENOT TONGA TOROX ANLOT PILOX SANAS KUDOS LEKOS MORSU MOLKA MAMOD MUMBA MELEN MOMPA MIDAI MADOG MEXIR IMPAL OTOWA BILLY TAERU BUNGU BAFFY CHEVY SYOYU GYANG NISMO VACKY KENTO SEALS 36E50 36E60 36E70 37E80 38N70 39N60 40N50 40N40 39N30 DACEM PAINT PIRAT BURGL DOUIT CROWY MUPTT MDOTS GRIPR BIKNG RUNNN IRNMN SYMON BAYST JUUSE CLIFY DAHJR GADDO12 hrs11.8 hrs269,313 lb-SUSPENDED-